Time;durP1;ratioP1;P1;durP2;ratioP2;P2;SDS_P1;SDS_P2;PMS_P1;PMS_P2;Temp;Humidity;BMP_temperature;BMP_pressure;BME280_temperature;BME280_humidity;BME280_pressure;Samples;Min_cycle;Max_cycle;Signal;HPM_P1;HPM_P2
2020/12/20 08:50:31;;;;;;;6.50;0.90;;;9.70;99.90;;;;;;4796110;23;20237;-75
2020/12/20 08:52:59;;;;;;;3.30;1.20;;;9.70;99.90;;;;;;4935565;29;20251;-73
2020/12/20 08:55:25;;;;;;;3.77;1.07;;;9.80;99.90;;;;;;4935852;29;20216;-75
2020/12/20 08:58:01;;;;;;;7.03;1.17;;;9.80;99.90;;;;;;4920522;29;20225;-75
2020/12/20 09:00:27;;;;;;;9.17;1.10;;;9.80;99.90;;;;;;4917038;29;20253;-75
2020/12/20 09:02:57;;;;;;;3.00;1.10;;;9.80;99.90;;;;;;4917201;29;20216;-73
2020/12/20 09:05:27;;;;;;;5.27;1.00;;;9.80;99.90;;;;;;4916734;29;20213;-75
2020/12/20 09:07:54;;;;;;;3.43;1.00;;;9.90;99.90;;;;;;4916998;29;20229;-74
2020/12/20 09:10:25;;;;;;;2.77;0.83;;;10.10;99.90;;;;;;4916711;29;20261;-76
2020/12/20 09:12:52;;;;;;;4.90;1.30;;;10.00;99.90;;;;;;4916996;29;20577;-76
2020/12/20 09:15:21;;;;;;;7.70;2.77;;;10.10;99.90;;;;;;4916820;29;20214;-76
2020/12/20 09:17:49;;;;;;;5.37;1.20;;;10.10;99.90;;;;;;4916541;29;20237;-75
2020/12/20 09:20:16;;;;;;;8.10;1.03;;;10.10;99.90;;;;;;4922563;29;20208;-75
2020/12/20 09:22:48;;;;;;;2.43;0.80;;;10.10;99.90;;;;;;4935064;29;20255;-77
2020/12/20 09:25:16;;;;;;;9.07;1.50;;;10.20;99.90;;;;;;4935622;29;20240;-75
2020/12/20 09:27:53;;;;;;;6.03;0.93;;;10.20;99.90;;;;;;4935319;29;20241;-76
2020/12/20 09:30:30;;;;;;;4.20;0.80;;;10.10;99.90;;;;;;4931054;29;20306;-77
2020/12/20 09:32:56;;;;;;;5.37;1.03;;;10.10;99.90;;;;;;4920445;29;20817;-80
2020/12/20 09:35:22;;;;;;;3.90;1.23;;;10.10;99.90;;;;;;4916195;29;20209;-76
2020/12/20 09:37:49;;;;;;;6.20;0.90;;;10.10;99.90;;;;;;4916160;29;20238;-79
2020/12/20 09:40:16;;;;;;;5.80;1.00;;;10.10;99.90;;;;;;4920204;29;20664;-69
2020/12/20 09:42:43;;;;;;;3.13;0.70;;;10.20;99.90;;;;;;4915251;29;20320;-76
2020/12/20 09:45:11;;;;;;;6.90;0.97;;;10.20;99.90;;;;;;4921505;29;20213;-72
2020/12/20 09:47:38;;;;;;;5.53;1.00;;;10.30;99.90;;;;;;4915920;29;20233;-72
2020/12/20 09:50:06;;;;;;;4.60;1.07;;;10.20;99.90;;;;;;4920480;29;20686;-79
2020/12/20 09:52:32;;;;;;;2.03;1.03;;;10.40;99.90;;;;;;4934601;29;20232;-75
2020/12/20 09:54:59;;;;;;;5.93;0.87;;;10.60;99.90;;;;;;4933806;29;20600;-76
2020/12/20 09:57:26;;;;;;;5.80;1.50;;;10.60;99.90;;;;;;4933157;29;20749;-75
2020/12/20 09:59:52;;;;;;;2.77;0.93;;;10.70;99.90;;;;;;4934032;29;20200;-75
2020/12/20 10:02:19;;;;;;;4.73;1.03;;;10.70;99.90;;;;;;4934057;29;20220;-75
2020/12/20 10:04:45;;;;;;;6.20;1.20;;;10.80;99.90;;;;;;4934054;29;20197;-77
2020/12/20 10:07:11;;;;;;;9.23;1.10;;;10.80;99.90;;;;;;4934307;29;20720;-75
2020/12/20 10:09:37;;;;;;;7.13;1.30;;;10.80;99.90;;;;;;4934569;29;20213;-74
2020/12/20 10:12:03;;;;;;;5.67;0.83;;;10.90;99.90;;;;;;4926431;29;20232;-77
2020/12/20 10:14:30;;;;;;;4.43;0.70;;;10.80;99.90;;;;;;4915741;29;20216;-74
2020/12/20 10:16:57;;;;;;;2.70;1.00;;;10.80;99.90;;;;;;4916024;29;20234;-73
2020/12/20 10:19:23;;;;;;;6.20;1.20;;;10.80;99.90;;;;;;4915855;29;20269;-74
2020/12/20 10:21:50;;;;;;;5.43;1.20;;;11.00;99.90;;;;;;4916151;29;20214;-73
2020/12/20 10:24:16;;;;;;;7.17;1.37;;;11.10;99.90;;;;;;4916307;29;20217;-73
2020/12/20 10:26:44;;;;;;;6.30;1.37;;;11.10;99.90;;;;;;4916182;29;20241;-73
2020/12/20 10:29:13;;;;;;;4.13;1.00;;;11.30;99.90;;;;;;4916159;29;20209;-74
2020/12/20 10:31:40;;;;;;;7.33;1.03;;;11.20;99.90;;;;;;4917279;29;20657;-74
2020/12/20 10:34:06;;;;;;;2.53;0.90;;;11.30;99.90;;;;;;4919967;29;20209;-74
2020/12/20 10:36:33;;;;;;;6.30;1.17;;;11.30;99.90;;;;;;4919470;29;20704;-73
2020/12/20 10:38:59;;;;;;;6.10;0.80;;;11.20;99.90;;;;;;4937412;29;20533;-74
2020/12/20 10:41:25;;;;;;;6.27;0.90;;;11.20;99.90;;;;;;4938377;29;20269;-74
2020/12/20 10:43:52;;;;;;;8.53;0.73;;;11.40;99.90;;;;;;4919840;29;20304;-74
2020/12/20 10:46:18;;;;;;;5.20;0.87;;;11.40;99.90;;;;;;4919172;29;20234;-74
2020/12/20 10:48:45;;;;;;;5.87;0.90;;;11.40;99.90;;;;;;4919227;29;20217;-74
2020/12/20 10:51:12;;;;;;;3.57;1.23;;;11.40;99.90;;;;;;4919570;29;20221;-73
2020/12/20 10:53:38;;;;;;;4.10;0.80;;;11.40;99.90;;;;;;4919583;29;20244;-73
2020/12/20 10:56:05;;;;;;;4.60;1.43;;;11.40;99.90;;;;;;4919574;29;20214;-74
2020/12/20 10:58:31;;;;;;;5.03;0.90;;;11.50;99.90;;;;;;4919314;29;20572;-73
2020/12/20 11:00:57;;;;;;;5.20;0.80;;;11.50;99.90;;;;;;4919388;29;20580;-73
2020/12/20 11:03:23;;;;;;;3.27;0.67;;;11.50;99.90;;;;;;4919570;29;20209;-74
2020/12/20 11:05:50;;;;;;;2.67;0.90;;;11.50;99.90;;;;;;4919387;29;20221;-73
2020/12/20 11:08:16;;;;;;;4.50;0.77;;;11.50;99.90;;;;;;4919541;29;20230;-73
2020/12/20 11:10:43;;;;;;;4.07;1.00;;;11.40;99.90;;;;;;4919335;29;20284;-74
2020/12/20 11:13:09;;;;;;;4.73;1.60;;;11.50;99.90;;;;;;4918932;29;20241;-73
2020/12/20 11:15:35;;;;;;;5.70;1.10;;;11.50;99.90;;;;;;4919294;29;20212;-72
2020/12/20 11:18:01;;;;;;;7.73;1.83;;;11.70;99.90;;;;;;4919151;29;20225;-72
2020/12/20 11:20:27;;;;;;;3.60;1.07;;;11.70;99.90;;;;;;4918873;29;20617;-71
2020/12/20 11:22:55;;;;;;;7.03;1.27;;;11.80;99.90;;;;;;4919025;29;20229;-73
2020/12/20 11:25:22;;;;;;;3.77;1.00;;;11.70;99.90;;;;;;4919072;29;20209;-72
2020/12/20 11:27:48;;;;;;;6.90;0.87;;;11.70;99.90;;;;;;4919138;29;20241;-73
2020/12/20 11:30:14;;;;;;;5.63;0.90;;;11.70;99.90;;;;;;4918927;29;20241;-73
2020/12/20 11:32:40;;;;;;;2.73;1.00;;;11.80;99.90;;;;;;4918983;29;20237;-72
2020/12/20 11:35:06;;;;;;;4.00;0.87;;;11.70;99.90;;;;;;4919028;29;20554;-73
2020/12/20 11:37:33;;;;;;;4.70;1.00;;;11.70;99.90;;;;;;4918279;29;20728;-73
2020/12/20 11:40:00;;;;;;;4.40;1.10;;;11.70;99.90;;;;;;4918534;29;20213;-74
2020/12/20 11:42:26;;;;;;;4.23;0.90;;;11.80;99.90;;;;;;4918362;29;20224;-73
2020/12/20 11:44:52;;;;;;;6.03;1.43;;;11.70;99.90;;;;;;4918363;29;20217;-73
2020/12/20 11:47:18;;;;;;;8.27;1.00;;;11.80;99.90;;;;;;4918691;29;20225;-73
2020/12/20 11:49:44;;;;;;;8.13;1.47;;;11.60;99.90;;;;;;4918544;29;20224;-73
2020/12/20 11:52:10;;;;;;;6.50;0.90;;;11.60;99.90;;;;;;4918333;29;20225;-73
2020/12/20 11:54:38;;;;;;;3.60;0.70;;;11.70;99.90;;;;;;4918390;29;20213;-73
2020/12/20 11:57:05;;;;;;;3.13;1.03;;;11.50;99.90;;;;;;4918633;29;20232;-73
2020/12/20 11:59:31;;;;;;;4.47;0.63;;;11.40;99.90;;;;;;4918510;29;20692;-73
2020/12/20 12:02:00;;;;;;;3.83;0.97;;;11.40;99.90;;;;;;4918486;29;20206;-72
2020/12/20 12:04:26;;;;;;;7.57;1.33;;;11.50;99.90;;;;;;4918406;29;20274;-73
2020/12/20 12:06:52;;;;;;;4.77;0.60;;;11.50;99.90;;;;;;4918196;29;20234;-73
2020/12/20 12:09:18;;;;;;;1.60;0.73;;;11.60;99.90;;;;;;4918123;29;20213;-73
2020/12/20 12:11:45;;;;;;;6.00;0.63;;;11.70;99.90;;;;;;4918380;29;20229;-72
2020/12/20 12:14:12;;;;;;;5.20;1.20;;;11.80;99.90;;;;;;4918041;29;20209;-73
2020/12/20 12:16:38;;;;;;;9.40;0.90;;;11.90;99.90;;;;;;4917881;29;20614;-73
2020/12/20 12:19:04;;;;;;;4.50;1.00;;;12.00;99.90;;;;;;4918000;29;20756;-73
2020/12/20 12:21:31;;;;;;;6.73;1.00;;;11.90;99.90;;;;;;4917955;29;20214;-72
2020/12/20 12:23:57;;;;;;;5.27;1.10;;;11.80;99.90;;;;;;4917896;29;20281;-73
2020/12/20 12:26:23;;;;;;;5.60;1.20;;;11.80;99.90;;;;;;4918025;29;20225;-72
2020/12/20 12:28:49;;;;;;;4.80;0.97;;;11.70;99.90;;;;;;4918280;29;20210;-73
2020/12/20 12:31:17;;;;;;;7.87;1.23;;;11.80;99.90;;;;;;4917990;29;20213;-73
2020/12/20 12:33:43;;;;;;;6.80;1.03;;;11.90;99.90;;;;;;4917700;29;20245;-73
2020/12/20 12:36:10;;;;;;;1.50;0.57;;;12.00;99.90;;;;;;4917605;29;20620;-73
2020/12/20 12:38:36;;;;;;;7.60;0.93;;;12.00;99.90;;;;;;4917743;29;20217;-73
2020/12/20 12:41:02;;;;;;;3.27;0.80;;;11.90;99.90;;;;;;4918252;29;20217;-73
2020/12/20 12:43:29;;;;;;;3.60;0.70;;;11.90;99.90;;;;;;4917941;29;20213;-72
2020/12/20 12:45:55;;;;;;;4.97;1.00;;;11.80;99.90;;;;;;4917571;29;20908;-73
2020/12/20 12:48:22;;;;;;;2.47;1.23;;;11.70;99.90;;;;;;4917517;29;20230;-73
2020/12/20 12:50:48;;;;;;;7.00;1.23;;;11.70;99.90;;;;;;4917440;29;20224;-72
2020/12/20 12:53:14;;;;;;;3.87;0.80;;;11.60;99.90;;;;;;4917491;29;20241;-72
2020/12/20 12:55:40;;;;;;;5.07;0.70;;;11.60;99.90;;;;;;4917319;29;20210;-73
2020/12/20 12:58:07;;;;;;;5.77;1.07;;;11.70;99.90;;;;;;4917348;29;20229;-73
2020/12/20 13:00:34;;;;;;;7.13;1.27;;;11.70;99.90;;;;;;4917016;29;20210;-74
2020/12/20 13:03:00;;;;;;;7.43;0.73;;;11.80;99.90;;;;;;4917334;29;20210;-72
2020/12/20 13:05:27;;;;;;;5.43;0.90;;;11.80;99.90;;;;;;4917002;29;20561;-73
2020/12/20 13:07:53;;;;;;;4.07;0.83;;;11.80;99.90;;;;;;4917099;29;20245;-71
2020/12/20 13:10:19;;;;;;;4.33;1.03;;;11.90;99.90;;;;;;4917366;29;20221;-73
2020/12/20 13:12:45;;;;;;;5.63;1.53;;;11.90;99.90;;;;;;4917399;29;20233;-72
2020/12/20 13:15:12;;;;;;;3.57;1.30;;;11.80;99.90;;;;;;4917227;29;20213;-72
2020/12/20 13:17:38;;;;;;;4.43;0.80;;;11.80;99.90;;;;;;4917000;29;20597;-72
2020/12/20 13:20:04;;;;;;;7.37;1.13;;;11.90;99.90;;;;;;4917156;29;20206;-72
2020/12/20 13:22:31;;;;;;;5.33;0.80;;;12.00;99.90;;;;;;4916908;29;20264;-74
2020/12/20 13:24:57;;;;;;;7.90;1.10;;;12.00;99.90;;;;;;4917114;29;20210;-72
2020/12/20 13:27:23;;;;;;;4.43;0.90;;;12.10;99.90;;;;;;4916737;29;20593;-73
2020/12/20 13:29:50;;;;;;;5.50;1.20;;;12.10;99.90;;;;;;4916769;29;20808;-73
2020/12/20 13:32:16;;;;;;;8.13;0.83;;;12.10;99.90;;;;;;4916798;29;20237;-73
2020/12/20 13:34:42;;;;;;;8.83;2.30;;;12.00;99.90;;;;;;4916889;29;20212;-73
2020/12/20 13:37:08;;;;;;;5.90;0.80;;;12.10;99.90;;;;;;4916896;29;20229;-72
2020/12/20 13:39:35;;;;;;;7.70;1.10;;;12.00;99.90;;;;;;4916934;29;20206;-73
2020/12/20 13:42:01;;;;;;;4.43;0.70;;;12.10;99.90;;;;;;4917041;29;20206;-72
2020/12/20 13:44:27;;;;;;;4.07;0.90;;;12.00;99.90;;;;;;4916839;29;20677;-72
2020/12/20 13:46:54;;;;;;;4.77;0.80;;;12.00;99.90;;;;;;4916604;29;20237;-72
2020/12/20 13:49:20;;;;;;;2.93;1.23;;;11.90;99.90;;;;;;4916644;29;20214;-73
2020/12/20 13:51:50;;;;;;;3.93;0.83;;;11.90;99.90;;;;;;4916855;29;20216;-73
2020/12/20 13:54:16;;;;;;;3.50;1.43;;;11.90;99.90;;;;;;4916738;29;20237;-72
2020/12/20 13:56:43;;;;;;;6.20;1.33;;;12.00;99.90;;;;;;4916751;29;20231;-73
2020/12/20 13:59:09;;;;;;;10.40;1.30;;;12.20;99.90;;;;;;4916567;29;20669;-72
2020/12/20 14:01:36;;;;;;;6.53;0.97;;;12.30;99.90;;;;;;4916744;29;20220;-72
2020/12/20 14:04:02;;;;;;;5.47;0.90;;;12.30;99.90;;;;;;4916623;29;20229;-72
2020/12/20 14:06:28;;;;;;;4.73;0.77;;;12.20;99.90;;;;;;4917348;29;20241;-73
2020/12/20 14:08:54;;;;;;;6.23;1.30;;;12.20;99.90;;;;;;4920498;29;20212;-72
2020/12/20 14:11:20;;;;;;;3.53;0.63;;;12.20;99.90;;;;;;4920235;29;20213;-71
2020/12/20 14:13:47;;;;;;;2.33;0.60;;;12.20;99.90;;;;;;4920387;29;20322;-72
2020/12/20 14:16:14;;;;;;;7.43;1.77;;;12.10;99.90;;;;;;4920101;29;20673;-72
2020/12/20 14:18:40;;;;;;;3.83;0.93;;;12.10;99.90;;;;;;4920492;29;20216;-72
2020/12/20 14:21:07;;;;;;;7.80;1.03;;;12.00;99.90;;;;;;4920224;29;20220;-72
2020/12/20 14:23:33;;;;;;;2.93;0.90;;;11.90;99.90;;;;;;4920402;29;20209;-72
2020/12/20 14:25:59;;;;;;;3.37;1.03;;;11.70;99.90;;;;;;4920164;29;20216;-72
2020/12/20 14:28:25;;;;;;;7.90;1.20;;;11.60;99.90;;;;;;4920125;29;20225;-73
2020/12/20 14:30:52;;;;;;;3.37;0.93;;;11.50;99.90;;;;;;4919667;29;20620;-73
2020/12/20 14:33:19;;;;;;;6.40;1.10;;;11.50;99.90;;;;;;4920150;29;20240;-72
2020/12/20 14:35:48;;;;;;;4.23;0.80;;;11.60;99.90;;;;;;4920196;29;20617;-72
2020/12/20 14:38:15;;;;;;;2.13;0.93;;;11.70;99.90;;;;;;4919875;29;20237;-71
2020/12/20 14:40:41;;;;;;;6.73;1.10;;;11.70;99.90;;;;;;4919822;29;20665;-72
2020/12/20 14:43:08;;;;;;;5.53;0.80;;;11.60;99.90;;;;;;4919774;29;20592;-72
2020/12/20 14:45:34;;;;;;;5.97;1.40;;;11.60;99.90;;;;;;4919902;29;20213;-71
2020/12/20 14:48:01;;;;;;;2.10;1.10;;;11.60;99.90;;;;;;4935269;23;20799;-72
2020/12/20 14:50:29;;;;;;;4.30;0.80;;;11.50;99.90;;;;;;4919672;29;20213;-72
2020/12/20 14:52:55;;;;;;;4.47;1.33;;;11.50;99.90;;;;;;4919548;29;20237;-73
2020/12/20 14:55:22;;;;;;;7.70;1.47;;;11.40;99.90;;;;;;4919697;29;20214;-72
2020/12/20 14:57:48;;;;;;;3.53;0.97;;;11.30;99.90;;;;;;4919434;29;20592;-72
2020/12/20 15:00:15;;;;;;;5.43;0.67;;;11.20;99.90;;;;;;4919424;29;20233;-72
2020/12/20 15:02:41;;;;;;;5.83;1.13;;;11.30;99.90;;;;;;4919402;29;20213;-72
2020/12/20 15:05:08;;;;;;;3.80;1.00;;;11.40;99.90;;;;;;4919546;29;20224;-73
2020/12/20 15:07:34;;;;;;;5.23;0.87;;;11.30;99.90;;;;;;4919233;29;20294;-72
2020/12/20 15:10:01;;;;;;;3.53;1.07;;;11.20;99.90;;;;;;4919326;29;20323;-73
2020/12/20 15:12:27;;;;;;;5.10;1.37;;;11.20;99.90;;;;;;4919266;29;20234;-72
2020/12/20 15:14:54;;;;;;;3.57;0.80;;;11.10;99.90;;;;;;4919060;29;20277;-72
2020/12/20 15:17:20;;;;;;;5.27;1.27;;;11.00;99.90;;;;;;4919337;29;20286;-72
2020/12/20 15:19:46;;;;;;;4.90;1.20;;;10.90;99.90;;;;;;4919122;29;20665;-73
2020/12/20 15:22:13;;;;;;;4.67;1.47;;;10.90;99.90;;;;;;4918913;29;20210;-73
2020/12/20 15:24:39;;;;;;;5.13;1.10;;;10.70;99.90;;;;;;4919015;29;20209;-73
2020/12/20 15:27:06;;;;;;;3.43;1.07;;;10.60;99.90;;;;;;4918984;29;20238;-72
2020/12/20 15:29:32;;;;;;;4.23;1.00;;;10.50;99.90;;;;;;4918923;29;20217;-72
2020/12/20 15:31:58;;;;;;;5.37;1.10;;;10.40;99.90;;;;;;4918917;29;20253;-72
2020/12/20 15:34:24;;;;;;;5.03;1.63;;;10.40;99.90;;;;;;4918949;29;20245;-72
2020/12/20 15:36:54;;;;;;;2.60;0.93;;;10.50;99.90;;;;;;4918880;29;20751;-72
2020/12/20 15:39:22;;;;;;;3.27;0.80;;;10.50;99.90;;;;;;4918673;29;20215;-72
2020/12/20 15:41:48;;;;;;;2.20;0.77;;;10.50;99.90;;;;;;4918480;29;20213;-72
2020/12/20 15:44:14;;;;;;;4.10;1.00;;;10.40;99.90;;;;;;4918641;29;20237;-72
2020/12/20 15:46:40;;;;;;;2.57;1.03;;;10.30;99.90;;;;;;4918413;29;20712;-72
2020/12/20 15:49:07;;;;;;;5.77;1.13;;;10.20;99.90;;;;;;4918567;29;20206;-72
2020/12/20 15:51:33;;;;;;;5.10;1.07;;;10.20;99.90;;;;;;4918325;29;20209;-72
2020/12/20 15:53:59;;;;;;;3.37;1.70;;;10.20;99.90;;;;;;4918151;29;20233;-73
2020/12/20 15:56:26;;;;;;;6.00;1.10;;;10.20;99.90;;;;;;4918121;29;20277;-72
2020/12/20 15:58:52;;;;;;;10.13;1.27;;;10.10;99.90;;;;;;4918493;29;20261;-72
2020/12/20 16:01:23;;;;;;;2.70;1.03;;;10.10;99.90;;;;;;4918630;29;20213;-72
2020/12/20 16:03:49;;;;;;;3.37;1.77;;;10.20;99.90;;;;;;4918534;29;20213;-72
2020/12/20 16:06:15;;;;;;;3.93;1.20;;;10.10;99.90;;;;;;4918255;29;20209;-72
2020/12/20 16:08:41;;;;;;;3.03;0.70;;;10.20;99.90;;;;;;4918206;29;20210;-72
2020/12/20 16:11:08;;;;;;;5.60;1.20;;;10.20;99.90;;;;;;4918045;29;20676;-72
2020/12/20 16:13:35;;;;;;;5.50;1.07;;;10.10;99.90;;;;;;4918265;29;20233;-72
2020/12/20 16:16:01;;;;;;;2.23;1.00;;;10.10;99.90;;;;;;4918242;29;20220;-72
2020/12/20 16:18:27;;;;;;;7.80;1.57;;;10.10;99.90;;;;;;4918099;29;20217;-72
2020/12/20 16:20:53;;;;;;;3.07;1.13;;;10.10;99.90;;;;;;4917751;29;20213;-72
2020/12/20 16:23:20;;;;;;;4.40;1.00;;;10.00;99.90;;;;;;4918074;29;20214;-73
2020/12/20 16:25:46;;;;;;;3.73;1.10;;;9.90;99.90;;;;;;4918147;29;20214;-72
2020/12/20 16:28:12;;;;;;;2.57;0.70;;;9.90;99.90;;;;;;4918049;29;20236;-72
2020/12/20 16:30:39;;;;;;;4.53;0.90;;;9.90;99.90;;;;;;4917277;29;20542;-72
2020/12/20 16:33:06;;;;;;;2.93;0.90;;;9.90;99.90;;;;;;4917929;29;20237;-72
2020/12/20 16:35:32;;;;;;;3.87;1.47;;;9.80;99.90;;;;;;4917994;29;20224;-72
2020/12/20 16:37:58;;;;;;;2.80;1.10;;;9.70;99.90;;;;;;4917606;29;20324;-72
2020/12/20 16:40:24;;;;;;;5.13;0.90;;;9.70;99.90;;;;;;4917919;29;20214;-72
2020/12/20 16:42:51;;;;;;;7.37;0.93;;;9.70;99.90;;;;;;4917868;29;20213;-72
2020/12/20 16:45:17;;;;;;;5.27;0.90;;;9.70;99.90;;;;;;4917757;29;20213;-72
2020/12/20 16:47:44;;;;;;;8.57;1.80;;;9.80;99.90;;;;;;4917497;29;20613;-73
2020/12/20 16:50:10;;;;;;;3.37;0.80;;;9.80;99.90;;;;;;4917516;29;20211;-72
2020/12/20 16:52:36;;;;;;;5.27;1.30;;;9.80;99.90;;;;;;4916993;29;20241;-72
2020/12/20 16:55:03;;;;;;;8.23;1.83;;;9.90;99.90;;;;;;4917464;29;20291;-73
2020/12/20 16:57:29;;;;;;;3.00;0.90;;;9.90;99.90;;;;;;4916582;29;20226;-72
2020/12/20 16:59:55;;;;;;;4.63;1.50;;;9.80;99.90;;;;;;4916768;29;20272;-73
2020/12/20 17:02:22;;;;;;;5.10;1.00;;;9.70;99.90;;;;;;4917167;29;20220;-72
2020/12/20 17:04:49;;;;;;;5.30;1.13;;;9.60;99.90;;;;;;4917287;29;20229;-72
2020/12/20 17:07:15;;;;;;;6.40;1.60;;;9.60;99.90;;;;;;4916763;29;20240;-72
2020/12/20 17:09:42;;;;;;;4.43;1.20;;;9.60;99.90;;;;;;4917743;29;20217;-72
2020/12/20 17:12:08;;;;;;;6.17;1.10;;;9.60;99.90;;;;;;4917442;29;20213;-73
2020/12/20 17:14:35;;;;;;;2.23;0.80;;;9.50;99.90;;;;;;4914755;29;20273;-77
2020/12/20 17:17:01;;;;;;;7.27;1.30;;;9.50;99.90;;;;;;4916290;29;20229;-73
2020/12/20 17:19:27;;;;;;;5.57;1.00;;;9.40;99.90;;;;;;4916922;29;20210;-75
2020/12/20 17:21:54;;;;;;;3.63;1.20;;;9.40;99.90;;;;;;4912674;29;20206;-73
2020/12/20 17:24:20;;;;;;;4.87;1.43;;;9.50;99.90;;;;;;4914855;29;20217;-73
2020/12/20 17:26:46;;;;;;;8.97;1.17;;;9.40;99.90;;;;;;4915307;29;20245;-73
2020/12/20 17:29:13;;;;;;;6.07;1.27;;;9.40;99.90;;;;;;4912851;29;20668;-73
2020/12/20 17:31:39;;;;;;;9.27;1.47;;;9.30;99.90;;;;;;4914679;29;20209;-73
2020/12/20 17:34:06;;;;;;;4.83;1.30;;;9.20;99.90;;;;;;4914935;29;20244;-75
2020/12/20 17:36:32;;;;;;;9.43;1.97;;;9.20;99.90;;;;;;4913287;29;20237;-74
2020/12/20 17:38:59;;;;;;;4.97;1.83;;;9.20;99.90;;;;;;4914424;29;20210;-76
2020/12/20 17:41:29;;;;;;;5.70;1.50;;;9.30;99.90;;;;;;4914251;29;20210;-76
2020/12/20 17:43:55;;;;;;;3.87;1.20;;;9.20;99.90;;;;;;4914431;29;20296;-76
2020/12/20 17:46:22;;;;;;;3.17;1.13;;;9.20;99.90;;;;;;4915198;29;20229;-73
2020/12/20 17:48:50;;;;;;;7.00;1.80;;;9.20;99.90;;;;;;4915391;29;20241;-73
2020/12/20 17:51:17;;;;;;;8.30;1.53;;;9.30;99.90;;;;;;4914308;29;20273;-79
2020/12/20 17:53:43;;;;;;;4.37;1.20;;;9.20;99.90;;;;;;4915077;29;20233;-76
2020/12/20 17:56:10;;;;;;;6.63;2.03;;;9.20;99.90;;;;;;4915441;29;20217;-74
2020/12/20 17:58:36;;;;;;;8.13;1.50;;;9.10;99.90;;;;;;4914738;29;20221;-74
2020/12/20 18:01:03;;;;;;;5.17;1.60;;;9.10;99.90;;;;;;4915562;29;20217;-78
2020/12/20 18:03:30;;;;;;;2.90;1.40;;;9.10;99.90;;;;;;4914602;29;20216;-80
2020/12/20 18:05:56;;;;;;;5.47;1.90;;;9.10;99.90;;;;;;4905584;29;20216;-75
2020/12/20 18:08:22;;;;;;;3.90;1.30;;;9.00;99.90;;;;;;4913040;29;20225;-75
2020/12/20 18:10:48;;;;;;;7.50;1.63;;;9.00;99.90;;;;;;4915049;29;20217;-74
2020/12/20 18:13:16;;;;;;;4.87;1.37;;;9.00;99.90;;;;;;4914748;29;20245;-80
2020/12/20 18:15:44;;;;;;;4.07;1.33;;;9.00;99.90;;;;;;4915488;29;20287;-79
2020/12/20 18:18:10;;;;;;;2.50;1.47;;;9.00;99.90;;;;;;4914404;29;20332;-78
2020/12/20 18:20:36;;;;;;;5.47;1.30;;;9.00;99.90;;;;;;4914865;29;20205;-78
2020/12/20 18:23:03;;;;;;;4.87;1.40;;;9.00;99.90;;;;;;4914719;29;20218;-72
2020/12/20 18:25:29;;;;;;;8.80;1.67;;;9.00;99.90;;;;;;4915023;29;20234;-78
2020/12/20 18:27:55;;;;;;;3.67;1.17;;;9.00;99.90;;;;;;4914544;29;20238;-76
2020/12/20 18:30:22;;;;;;;3.63;1.60;;;8.90;99.90;;;;;;4914410;29;20241;-80
2020/12/20 18:32:49;;;;;;;5.87;1.87;;;9.00;99.90;;;;;;4914525;29;20254;-80
2020/12/20 18:35:15;;;;;;;4.87;1.60;;;9.00;99.90;;;;;;4916622;29;20606;-80
2020/12/20 18:37:41;;;;;;;10.27;1.87;;;8.90;99.90;;;;;;4915124;29;20226;-79
2020/12/20 18:40:07;;;;;;;3.23;1.30;;;8.80;99.90;;;;;;4915749;29;20210;-80
2020/12/20 18:42:33;;;;;;;5.70;1.87;;;8.90;99.90;;;;;;4915496;29;20214;-77
2020/12/20 18:45:00;;;;;;;4.67;1.33;;;8.80;99.90;;;;;;4915436;29;20214;-80
2020/12/20 18:47:27;;;;;;;2.60;1.10;;;8.80;99.90;;;;;;4915789;29;20321;-79
2020/12/20 18:49:53;;;;;;;3.70;1.17;;;8.80;99.90;;;;;;4916271;29;20214;-78
2020/12/20 18:52:20;;;;;;;4.00;1.20;;;8.80;99.90;;;;;;4916198;29;20220;-79
2020/12/20 18:54:46;;;;;;;7.27;1.97;;;8.80;99.90;;;;;;4919062;29;20245;-80
2020/12/20 18:57:12;;;;;;;5.27;1.70;;;8.80;99.90;;;;;;4919073;29;20281;-78
2020/12/20 18:59:39;;;;;;;4.93;1.37;;;8.80;99.90;;;;;;4919244;29;20382;-79
2020/12/20 19:02:06;;;;;;;4.20;1.13;;;8.70;99.90;;;;;;4919452;29;20205;-79
2020/12/20 19:04:33;;;;;;;8.80;2.13;;;8.70;99.90;;;;;;4919475;29;20556;-78
2020/12/20 19:07:00;;;;;;;3.90;1.33;;;8.70;99.90;;;;;;4918310;29;20229;-77
2020/12/20 19:09:26;;;;;;;4.53;1.30;;;8.70;99.90;;;;;;4919062;29;20613;-79
2020/12/20 19:11:53;;;;;;;5.33;1.40;;;8.70;99.90;;;;;;4919217;29;20535;-81
2020/12/20 19:14:20;;;;;;;8.90;1.70;;;8.70;99.90;;;;;;4918540;29;20240;-79
2020/12/20 19:16:48;;;;;;;6.57;1.80;;;8.70;99.90;;;;;;4918563;29;20230;-79
2020/12/20 19:19:16;;;;;;;3.63;1.60;;;8.70;99.90;;;;;;4918098;29;20248;-80
2020/12/20 19:21:43;;;;;;;8.80;1.60;;;8.60;99.90;;;;;;4917939;29;20244;-79
2020/12/20 19:24:10;;;;;;;8.17;1.70;;;8.60;99.90;;;;;;4918659;29;20238;-80
2020/12/20 19:26:38;;;;;;;7.70;1.50;;;8.60;99.90;;;;;;4918852;29;20237;-79
2020/12/20 19:29:05;;;;;;;6.67;1.87;;;8.60;99.90;;;;;;4918390;29;20214;-79
2020/12/20 19:31:36;;;;;;;5.77;1.40;;;8.60;99.90;;;;;;4918555;29;20213;-80
2020/12/20 19:34:03;;;;;;;4.47;1.27;;;8.50;99.90;;;;;;4918276;29;20233;-80
2020/12/20 19:36:29;;;;;;;7.07;1.53;;;8.50;99.90;;;;;;4918084;29;20241;-79
2020/12/20 19:38:56;;;;;;;5.30;1.40;;;8.50;99.90;;;;;;4918552;29;20205;-79
2020/12/20 19:41:23;;;;;;;6.10;1.50;;;8.50;99.90;;;;;;4918228;29;20206;-79
2020/12/20 19:43:49;;;;;;;4.80;1.40;;;8.50;99.90;;;;;;4917992;29;20209;-78
2020/12/20 19:46:17;;;;;;;5.47;1.20;;;8.50;99.90;;;;;;4918296;29;20205;-79
2020/12/20 19:48:43;;;;;;;7.60;1.43;;;8.50;99.90;;;;;;4918644;29;20210;-79
2020/12/20 19:51:12;;;;;;;6.70;1.53;;;8.50;99.90;;;;;;4918406;29;20210;-78
2020/12/20 19:53:39;;;;;;;5.77;1.70;;;8.50;99.90;;;;;;4918313;29;20584;-78
2020/12/20 19:56:06;;;;;;;4.67;1.23;;;8.50;99.90;;;;;;4918031;29;20673;-79
2020/12/20 19:58:32;;;;;;;5.50;1.80;;;8.40;99.90;;;;;;4918586;29;20206;-78
2020/12/20 20:01:01;;;;;;;4.30;1.60;;;8.40;99.90;;;;;;4918472;29;20621;-78
2020/12/20 20:03:28;;;;;;;8.00;1.43;;;8.50;99.90;;;;;;4917800;29;20209;-79
2020/12/20 20:05:54;;;;;;;7.43;1.50;;;8.50;99.90;;;;;;4917952;29;20213;-79
2020/12/20 20:08:21;;;;;;;3.10;1.53;;;8.50;99.90;;;;;;4917946;29;20230;-80
2020/12/20 20:10:49;;;;;;;4.03;1.60;;;8.50;99.90;;;;;;4918122;29;20205;-79
2020/12/20 20:13:16;;;;;;;2.87;1.30;;;8.50;99.90;;;;;;4917337;29;20509;-79
2020/12/20 20:15:42;;;;;;;5.97;1.70;;;8.50;99.90;;;;;;4917916;29;20221;-79
2020/12/20 20:18:09;;;;;;;9.30;1.50;;;8.50;99.90;;;;;;4917756;29;20238;-78
2020/12/20 20:20:35;;;;;;;6.77;1.93;;;8.50;99.90;;;;;;4917333;29;20573;-78
2020/12/20 20:23:02;;;;;;;4.73;1.57;;;8.40;99.90;;;;;;4917765;29;20213;-78
2020/12/20 20:25:28;;;;;;;5.33;2.07;;;8.40;99.90;;;;;;4917298;29;20296;-80
2020/12/20 20:27:54;;;;;;;10.03;2.20;;;8.50;99.90;;;;;;4917087;29;20713;-79
2020/12/20 20:30:22;;;;;;;7.23;1.63;;;8.40;99.90;;;;;;4917529;29;20210;-78
2020/12/20 20:32:48;;;;;;;7.07;1.80;;;8.40;99.90;;;;;;4917490;29;20218;-79
2020/12/20 20:35:14;;;;;;;10.10;2.20;;;8.40;99.90;;;;;;4917162;29;20213;-79
2020/12/20 20:37:41;;;;;;;5.77;1.80;;;8.50;99.90;;;;;;4917146;29;20233;-79
2020/12/20 20:40:08;;;;;;;2.93;1.57;;;8.50;99.90;;;;;;4917495;29;20610;-79
2020/12/20 20:42:34;;;;;;;4.53;1.50;;;8.50;99.90;;;;;;4916954;29;20562;-78
2020/12/20 20:45:00;;;;;;;7.40;1.60;;;8.50;99.90;;;;;;4917314;29;20221;-79
2020/12/20 20:47:28;;;;;;;4.50;1.47;;;8.50;99.90;;;;;;4917944;29;20233;-79
2020/12/20 20:49:54;;;;;;;3.00;1.53;;;8.40;99.90;;;;;;4917244;29;20217;-79
2020/12/20 20:52:20;;;;;;;5.57;2.00;;;8.40;99.90;;;;;;4916709;29;20688;-79
2020/12/20 20:54:47;;;;;;;6.43;1.10;;;8.30;99.90;;;;;;4917037;29;20705;-79
2020/12/20 20:57:13;;;;;;;5.20;1.43;;;8.30;99.90;;;;;;4917066;29;20233;-79
2020/12/20 20:59:39;;;;;;;2.97;1.00;;;8.30;99.90;;;;;;4916877;29;20213;-78
2020/12/20 21:02:05;;;;;;;4.83;1.47;;;8.30;99.90;;;;;;4917036;29;20209;-80
2020/12/20 21:04:34;;;;;;;2.83;1.00;;;8.30;99.90;;;;;;4916663;29;20214;-78
2020/12/20 21:07:00;;;;;;;4.40;1.23;;;8.30;99.90;;;;;;4916823;29;20233;-78
2020/12/20 21:09:27;;;;;;;8.30;0.93;;;8.30;99.90;;;;;;4916982;29;20210;-79
2020/12/20 21:11:53;;;;;;;1.90;0.90;;;8.30;99.90;;;;;;4916536;29;20547;-79
2020/12/20 21:14:19;;;;;;;1.93;0.80;;;8.30;99.90;;;;;;4916723;29;20237;-79
2020/12/20 21:16:45;;;;;;;5.53;1.27;;;8.20;99.90;;;;;;4916570;29;20607;-77
2020/12/20 21:19:11;;;;;;;2.40;1.00;;;8.30;99.90;;;;;;4916492;29;20217;-78
2020/12/20 21:21:39;;;;;;;6.80;1.00;;;8.30;99.90;;;;;;4916294;29;20213;-80
2020/12/20 21:24:05;;;;;;;5.60;0.90;;;8.30;99.90;;;;;;4916706;29;20205;-79
2020/12/20 21:26:31;;;;;;;3.63;1.10;;;8.30;99.90;;;;;;4916201;29;20241;-79
2020/12/20 21:28:58;;;;;;;3.13;1.10;;;8.30;99.90;;;;;;4916542;29;20218;-79
2020/12/20 21:31:24;;;;;;;3.57;1.23;;;8.30;99.90;;;;;;4916519;29;20210;-78
2020/12/20 21:33:50;;;;;;;5.20;1.33;;;8.30;99.90;;;;;;4916151;29;20244;-78
2020/12/20 21:36:17;;;;;;;6.00;1.30;;;8.20;99.90;;;;;;4916660;29;20209;-79